Time;durP1;ratioP1;P1;durP2;ratioP2;P2;SDS_P1;SDS_P2;PMS_P1;PMS_P2;Temp;Humidity;BMP_temperature;BMP_pressure;BME280_temperature;BME280_humidity;BME280_pressure;Samples;Min_cycle;Max_cycle;Signal;HPM_P1;HPM_P2
2021/11/04 00:00:12;;;;;;;0.00;0.00;;;;;;;13.34;90.70;99097.06;5031179;28;20474;-74
2021/11/04 00:02:38;;;;;;;0.00;0.00;;;;;;;13.26;90.42;99073.53;5030786;28;20033;-69
2021/11/04 00:05:04;;;;;;;0.13;0.13;;;;;;;13.33;90.21;99090.09;5032197;28;20042;-73
2021/11/04 00:07:29;;;;;;;0.03;0.03;;;;;;;13.27;90.03;99086.66;5031443;28;20520;-71
2021/11/04 00:09:55;;;;;;;0.00;0.00;;;;;;;13.19;89.96;99073.13;5032418;28;20025;-71
2021/11/04 00:12:20;;;;;;;0.00;0.00;;;;;;;13.28;90.02;99088.28;5031463;28;20556;-74
2021/11/04 00:14:46;;;;;;;0.00;0.00;;;;;;;13.26;89.98;99095.03;5032373;28;20040;-74
2021/11/04 00:17:11;;;;;;;0.00;0.00;;;;;;;13.18;89.21;99103.75;5031858;28;20099;-74
2021/11/04 00:19:37;;;;;;;0.10;0.10;;;;;;;13.11;89.08;99110.28;5029819;28;20040;-72
2021/11/04 00:22:03;;;;;;;0.00;0.00;;;;;;;12.98;89.24;99106.41;5032195;28;20453;-72
2021/11/04 00:24:29;;;;;;;0.00;0.00;;;;;;;12.93;89.22;99105.72;5029877;28;20048;-73
2021/11/04 00:26:55;;;;;;;0.00;0.00;;;;;;;12.95;89.07;99119.63;5031647;28;20479;-72
2021/11/04 00:29:20;;;;;;;0.00;0.00;;;;;;;12.84;88.80;99113.63;5032004;28;20032;-73
2021/11/04 00:31:46;;;;;;;0.00;0.00;;;;;;;12.85;88.59;99117.88;5031713;28;20124;-73
2021/11/04 00:34:11;;;;;;;0.03;0.03;;;;;;;12.75;87.90;99116.13;5031906;28;20034;-70
2021/11/04 00:36:37;;;;;;;0.00;0.00;;;;;;;12.75;86.87;99120.72;5031666;28;20095;-73
2021/11/04 00:39:03;;;;;;;0.00;0.00;;;;;;;12.69;86.82;99122.66;5031186;28;20037;-73
2021/11/04 00:41:28;;;;;;;0.00;0.00;;;;;;;12.62;86.50;99114.97;5030887;28;20486;-73
2021/11/04 00:43:56;;;;;;;0.00;0.00;;;;;;;12.58;85.35;99118.50;5030900;28;20037;-72
2021/11/04 00:46:22;;;;;;;0.00;0.00;;;;;;;12.39;83.70;99107.72;5031505;28;20041;-71
2021/11/04 00:48:47;;;;;;;0.00;0.00;;;;;;;12.31;83.29;99118.00;5030779;28;20530;-72
2021/11/04 00:51:13;;;;;;;0.00;0.00;;;;;;;12.23;82.78;99129.38;5031322;28;20025;-72
2021/11/04 00:53:38;;;;;;;0.00;0.00;;;;;;;12.11;82.62;99124.38;5030784;28;20033;-72
2021/11/04 00:56:04;;;;;;;0.00;0.00;;;;;;;11.95;82.37;99117.53;5030854;28;20029;-71
2021/11/04 00:58:29;;;;;;;0.10;0.10;;;;;;;11.87;82.68;99127.00;5031482;28;20021;-73
2021/11/04 01:00:55;;;;;;;0.10;0.10;;;;;;;11.82;82.47;99119.00;5030725;28;20029;-72
2021/11/04 01:03:22;;;;;;;0.20;0.20;;;;;;;11.75;83.10;99121.22;5030827;28;20037;-77
2021/11/04 01:05:48;;;;;;;0.00;0.00;;;;;;;11.68;83.02;99121.53;5031086;28;20034;-79
2021/11/04 01:08:14;;;;;;;0.00;0.00;;;;;;;11.60;83.61;99116.81;5029985;28;20117;-77
2021/11/04 01:10:40;;;;;;;0.00;0.00;;;;;;;11.59;83.44;99131.28;5029704;28;20124;-75
2021/11/04 01:13:06;;;;;;;0.10;0.10;;;;;;;11.49;82.83;99124.13;5029148;28;20112;-79
2021/11/04 01:15:31;;;;;;;0.10;0.10;;;;;;;11.42;82.56;99121.75;5029575;28;20030;-74
2021/11/04 01:17:57;;;;;;;0.35;0.35;;;;;;;11.32;82.70;99127.97;5029611;28;20163;-75
2021/11/04 01:20:22;;;;;;;0.00;0.00;;;;;;;11.26;82.91;99126.41;5029855;28;20021;-71
2021/11/04 01:22:49;;;;;;;0.00;0.00;;;;;;;11.21;83.06;99126.44;5030315;28;20430;-71
2021/11/04 01:25:14;;;;;;;0.00;0.00;;;;;;;11.13;83.39;99127.84;5030338;28;20036;-71
2021/11/04 01:27:40;;;;;;;0.00;0.00;;;;;;;11.04;83.56;99126.81;5030428;28;20033;-72
2021/11/04 01:30:07;;;;;;;0.00;0.00;;;;;;;10.91;83.93;99120.19;5030768;28;20025;-72
2021/11/04 01:32:32;;;;;;;0.00;0.00;;;;;;;10.87;83.87;99122.63;5030459;28;20097;-72
2021/11/04 01:34:58;;;;;;;0.00;0.00;;;;;;;10.91;84.00;99135.47;5030965;28;20030;-71
2021/11/04 01:37:24;;;;;;;0.00;0.00;;;;;;;10.85;84.49;99129.31;5030937;28;20029;-72
2021/11/04 01:39:49;;;;;;;0.00;0.00;;;;;;;10.78;84.97;99131.50;5029379;28;20034;-71
2021/11/04 01:42:15;;;;;;;0.00;0.00;;;;;;;10.73;85.37;99133.13;5029857;28;20045;-72
2021/11/04 01:44:40;;;;;;;0.00;0.00;;;;;;;10.70;85.98;99141.69;5030687;28;20035;-72
2021/11/04 01:47:08;;;;;;;0.00;0.00;;;;;;;10.68;86.15;99141.19;5030517;28;20022;-72
2021/11/04 01:49:36;;;;;;;0.00;0.00;;;;;;;10.73;86.29;99153.75;5026697;28;20029;-72
2021/11/04 01:52:02;;;;;;;0.00;0.00;;;;;;;10.65;86.51;99141.72;5011035;28;20037;-72
2021/11/04 01:54:28;;;;;;;0.00;0.00;;;;;;;10.62;87.33;99158.31;5010989;28;20026;-70
2021/11/04 01:56:53;;;;;;;0.00;0.00;;;;;;;10.59;87.18;99158.88;5010805;28;20026;-72
2021/11/04 01:59:18;;;;;;;0.00;0.00;;;;;;;10.57;87.86;99158.34;5026294;28;20032;-71
2021/11/04 02:01:44;;;;;;;0.00;0.00;;;;;;;10.49;87.56;99157.03;5030200;28;20029;-70
2021/11/04 02:04:41;;;;;;;0.00;0.00;;;;;;;10.51;87.45;99156.75;5030313;28;20037;-73
2021/11/04 02:07:13;;;;;;;0.00;0.00;;;;;;;10.46;86.87;99152.25;5009903;28;20053;-69
2021/11/04 02:10:03;;;;;;;0.00;0.00;;;;;;;10.38;86.69;99139.41;5010728;28;20061;-70
2021/11/04 02:12:43;;;;;;;0.00;0.00;;;;;;;10.35;86.53;99138.06;5005152;28;20411;-73
2021/11/04 02:15:10;;;;;;;0.00;0.00;;;;;;;10.35;86.22;99143.41;5009604;28;20521;-74
2021/11/04 02:17:36;;;;;;;0.00;0.00;;;;;;;10.30;86.46;99147.97;5016405;28;20428;-75
2021/11/04 02:20:03;;;;;;;0.00;0.00;;;;;;;10.29;85.83;99170.41;5028697;28;20037;-71
2021/11/04 02:22:47;;;;;;;0.00;0.00;;;;;;;10.26;86.55;99171.75;5030488;28;20033;-70
2021/11/04 02:25:15;;;;;;;0.00;0.00;;;;;;;10.22;86.47;99165.34;5030610;28;20064;-73
2021/11/04 02:27:46;;;;;;;0.00;0.00;;;;;;;10.14;86.20;99158.69;5030274;28;20025;-73
2021/11/04 02:30:12;;;;;;;0.00;0.00;;;;;;;10.02;85.82;99158.97;5030091;28;20026;-72
2021/11/04 02:32:38;;;;;;;0.00;0.00;;;;;;;10.02;86.04;99177.69;5029174;28;20104;-72
2021/11/04 02:35:05;;;;;;;0.00;0.00;;;;;;;9.90;86.26;99174.50;5032689;28;20025;-71
2021/11/04 02:37:31;;;;;;;0.00;0.00;;;;;;;9.83;86.29;99168.63;5032897;28;20413;-72
2021/11/04 02:39:58;;;;;;;0.00;0.00;;;;;;;9.85;86.15;99190.50;5033778;28;20038;-72
2021/11/04 02:42:24;;;;;;;0.00;0.00;;;;;;;9.81;86.13;99189.44;5034013;28;20045;-73
2021/11/04 02:44:50;;;;;;;0.00;0.00;;;;;;;9.71;86.38;99193.69;5033872;28;20026;-73
2021/11/04 02:47:16;;;;;;;0.00;0.00;;;;;;;9.71;86.84;99198.25;5033512;28;20115;-71
2021/11/04 02:49:45;;;;;;;0.00;0.00;;;;;;;9.73;87.75;99206.81;5033205;28;20064;-72
2021/11/04 02:52:11;;;;;;;0.00;0.00;;;;;;;9.71;88.31;99203.59;5033839;28;20025;-71
2021/11/04 02:54:37;;;;;;;0.00;0.00;;;;;;;9.65;89.36;99197.44;5033852;28;20120;-70
2021/11/04 02:57:02;;;;;;;0.00;0.00;;;;;;;9.71;89.35;99199.03;5033860;28;20029;-70
2021/11/04 02:59:28;;;;;;;0.00;0.00;;;;;;;9.73;90.56;99212.16;5033541;28;20036;-71
2021/11/04 03:01:58;;;;;;;0.00;0.00;;;;;;;9.67;90.62;99199.88;5033253;28;20029;-71
2021/11/04 03:04:25;;;;;;;0.00;0.00;;;;;;;9.73;91.30;99214.81;5031184;28;20034;-72
2021/11/04 03:06:50;;;;;;;0.10;0.10;;;;;;;9.76;92.09;99207.06;5032675;28;20033;-73
2021/11/04 03:09:18;;;;;;;0.00;0.00;;;;;;;9.74;92.25;99205.72;5012603;28;20046;-75
2021/11/04 03:11:44;;;;;;;0.00;0.00;;;;;;;9.70;92.65;99194.75;5013534;28;20041;-74
2021/11/04 03:14:09;;;;;;;0.00;0.00;;;;;;;9.84;93.22;99218.28;5013749;28;20030;-75
2021/11/04 03:16:48;;;;;;;0.00;0.00;;;;;;;9.78;93.90;99201.47;5013410;28;20042;-73
2021/11/04 03:19:17;;;;;;;0.00;0.00;;;;;;;9.93;93.92;99224.69;5021530;28;20037;-72
2021/11/04 03:21:47;;;;;;;0.00;0.00;;;;;;;9.93;94.06;99228.16;5022208;28;20033;-73
2021/11/04 03:24:18;;;;;;;0.00;0.00;;;;;;;9.94;94.42;99224.41;5012248;28;20499;-73
2021/11/04 03:26:46;;;;;;;0.10;0.10;;;;;;;9.83;94.83;99212.13;5030510;28;20603;-72
2021/11/04 03:29:13;;;;;;;0.00;0.00;;;;;;;9.99;95.05;99228.97;5033317;28;20021;-74
2021/11/04 03:31:42;;;;;;;0.00;0.00;;;;;;;9.96;95.35;99221.50;5031520;28;20025;-72
2021/11/04 03:34:08;;;;;;;0.00;0.00;;;;;;;10.04;95.37;99230.84;5032193;28;20521;-72
2021/11/04 03:36:35;;;;;;;0.00;0.00;;;;;;;10.11;95.48;99242.06;5032776;28;20034;-71
2021/11/04 03:39:03;;;;;;;0.00;0.00;;;;;;;10.12;95.94;99240.19;5031014;28;20026;-76
2021/11/04 03:41:29;;;;;;;0.00;0.00;;;;;;;10.00;96.24;99213.75;5031249;28;20061;-72
2021/11/04 03:43:56;;;;;;;0.00;0.00;;;;;;;10.17;96.22;99241.00;5032741;28;20036;-73
2021/11/04 03:46:22;;;;;;;0.00;0.00;;;;;;;10.21;96.53;99241.25;5032419;28;20033;-74
2021/11/04 03:48:49;;;;;;;0.00;0.00;;;;;;;10.25;96.42;99237.78;5031319;28;20032;-74
2021/11/04 03:51:14;;;;;;;0.00;0.00;;;;;;;10.24;96.69;99230.84;5032071;28;20105;-71
2021/11/04 03:53:41;;;;;;;0.00;0.00;;;;;;;10.28;96.25;99231.09;5032595;28;20108;-71
2021/11/04 03:56:07;;;;;;;0.00;0.00;;;;;;;10.32;96.13;99231.38;5032733;28;20048;-73
2021/11/04 03:58:39;;;;;;;0.00;0.00;;;;;;;10.41;96.36;99246.63;5032442;28;20482;-72
2021/11/04 04:01:05;;;;;;;0.00;0.00;;;;;;;10.43;95.95;99245.56;5032373;28;20068;-73
2021/11/04 04:03:31;;;;;;;0.00;0.00;;;;;;;10.41;96.13;99233.25;5032330;28;20061;-73
2021/11/04 04:06:03;;;;;;;0.10;0.10;;;;;;;10.41;96.19;99235.09;5032006;28;20106;-70
2021/11/04 04:08:30;;;;;;;0.10;0.10;;;;;;;10.52;96.16;99249.25;5030805;28;20026;-71
2021/11/04 04:10:57;;;;;;;0.00;0.00;;;;;;;10.48;96.12;99253.56;5012474;28;20030;-73
2021/11/04 04:13:22;;;;;;;0.00;0.00;;;;;;;10.51;96.41;99258.34;5011174;28;20115;-73
2021/11/04 04:15:48;;;;;;;0.00;0.00;;;;;;;10.49;96.61;99249.81;5012031;28;20487;-71
2021/11/04 04:18:14;;;;;;;0.00;0.00;;;;;;;10.56;96.41;99261.84;5023510;28;20021;-71
2021/11/04 04:20:39;;;;;;;0.00;0.00;;;;;;;10.54;96.93;99244.47;5032188;28;20037;-71
2021/11/04 04:23:05;;;;;;;0.00;0.00;;;;;;;10.59;96.94;99251.66;5030680;28;20026;-73
2021/11/04 04:25:30;;;;;;;0.10;0.10;;;;;;;10.53;96.96;99238.31;5032200;28;20037;-72
2021/11/04 04:27:57;;;;;;;0.35;0.35;;;;;;;10.52;96.81;99239.38;5031850;28;20036;-72
2021/11/04 04:30:22;;;;;;;0.00;0.00;;;;;;;10.59;97.05;99257.03;5030802;28;20150;-72
2021/11/04 04:32:48;;;;;;;0.00;0.00;;;;;;;10.53;97.30;99241.00;5031296;28;20545;-73
2021/11/04 04:35:13;;;;;;;0.00;0.00;;;;;;;10.61;97.17;99258.34;5031303;28;20025;-74
2021/11/04 04:37:39;;;;;;;0.00;0.00;;;;;;;10.62;97.08;99259.97;5030595;28;20025;-72
2021/11/04 04:40:05;;;;;;;0.00;0.00;;;;;;;10.56;97.78;99251.13;5028250;28;20025;-72
2021/11/04 04:42:30;;;;;;;0.00;0.00;;;;;;;10.60;97.42;99248.72;5031312;28;20046;-72
2021/11/04 04:44:56;;;;;;;0.00;0.00;;;;;;;10.55;97.49;99246.84;5030899;28;20083;-73
2021/11/04 04:47:22;;;;;;;0.00;0.00;;;;;;;10.68;97.51;99266.91;5017860;28;20037;-72
2021/11/04 04:49:47;;;;;;;0.10;0.10;;;;;;;10.64;97.88;99263.13;5010427;28;20026;-80
2021/11/04 04:52:13;;;;;;;0.00;0.00;;;;;;;10.64;97.59;99265.81;5016528;28;20033;-72
2021/11/04 04:54:38;;;;;;;0.00;0.00;;;;;;;10.70;97.75;99280.00;5023694;28;20494;-72
2021/11/04 04:57:04;;;;;;;0.00;0.00;;;;;;;10.69;98.04;99273.03;5012496;28;20117;-72
2021/11/04 04:59:30;;;;;;;0.00;0.00;;;;;;;10.73;97.91;99279.47;5028527;28;20632;-72
2021/11/04 05:01:55;;;;;;;0.00;0.00;;;;;;;10.76;97.48;99278.91;5031342;28;20479;-71
2021/11/04 05:04:21;;;;;;;0.00;0.00;;;;;;;10.72;98.18;99273.28;5021940;28;20026;-73
2021/11/04 05:06:46;;;;;;;0.00;0.00;;;;;;;10.71;98.39;99262.88;5020765;28;20044;-74
2021/11/04 05:09:12;;;;;;;0.00;0.00;;;;;;;10.83;98.22;99286.66;5020801;28;20033;-72
2021/11/04 05:11:37;;;;;;;0.00;0.00;;;;;;;10.84;98.40;99297.09;5030974;28;20048;-74
2021/11/04 05:14:03;;;;;;;0.00;0.00;;;;;;;10.84;97.91;99297.09;5031129;28;20029;-79
2021/11/04 05:16:29;;;;;;;0.00;0.00;;;;;;;10.85;98.97;99295.19;5029286;28;20057;-73
2021/11/04 05:18:54;;;;;;;0.00;0.00;;;;;;;10.92;99.17;99295.72;5029588;28;20501;-70
2021/11/04 05:21:19;;;;;;;0.00;0.00;;;;;;;10.92;98.76;99290.38;5038552;28;20025;-68
2021/11/04 05:23:45;;;;;;;0.00;0.00;;;;;;;10.96;98.76;99299.47;5035337;28;20033;-70
2021/11/04 05:26:10;;;;;;;0.00;0.00;;;;;;;10.97;98.39;99297.59;5034087;28;20379;-70
2021/11/04 05:28:36;;;;;;;0.00;0.00;;;;;;;11.05;98.57;99303.19;5028207;28;20034;-69
2021/11/04 05:31:03;;;;;;;0.00;0.00;;;;;;;11.10;98.36;99306.94;5029668;28;20033;-70
2021/11/04 05:33:28;;;;;;;0.00;0.00;;;;;;;11.10;98.76;99299.69;5029511;28;20026;-70
2021/11/04 05:35:54;;;;;;;0.00;0.00;;;;;;;11.12;98.58;99307.44;5030419;28;20087;-70
2021/11/04 05:38:20;;;;;;;0.00;0.00;;;;;;;11.20;98.90;99309.56;5030964;28;20105;-70
2021/11/04 05:40:45;;;;;;;0.00;0.00;;;;;;;11.18;98.93;99309.84;5030536;28;20028;-70
2021/11/04 05:43:11;;;;;;;0.00;0.00;;;;;;;11.21;99.04;99309.28;5029257;28;20080;-71
2021/11/04 05:45:36;;;;;;;0.00;0.00;;;;;;;11.21;98.94;99314.63;5030792;28;20033;-70
2021/11/04 05:48:01;;;;;;;0.52;0.38;;;;;;;11.23;99.08;99310.88;5030265;28;20095;-71
2021/11/04 05:50:27;;;;;;;0.00;0.00;;;;;;;11.13;98.88;99301.00;5031042;28;20040;-72
2021/11/04 05:52:52;;;;;;;0.00;0.00;;;;;;;11.15;98.62;99298.88;5030617;28;20034;-71
2021/11/04 05:55:18;;;;;;;0.00;0.00;;;;;;;11.24;98.95;99325.88;5030735;28;20029;-71
2021/11/04 05:57:43;;;;;;;0.00;0.00;;;;;;;11.21;98.92;99322.66;5029418;28;20644;-71
2021/11/04 06:00:09;;;;;;;0.00;0.00;;;;;;;11.15;98.80;99325.63;5030763;28;20025;-71
2021/11/04 06:02:35;;;;;;;0.00;0.00;;;;;;;11.21;98.35;99343.28;5030728;28;20409;-71
2021/11/04 06:05:00;;;;;;;0.00;0.00;;;;;;;11.09;98.38;99327.53;5030136;28;20029;-71
2021/11/04 06:07:28;;;;;;;0.00;0.00;;;;;;;11.14;99.17;99334.75;5030661;28;20383;-71
2021/11/04 06:09:53;;;;;;;0.00;0.00;;;;;;;11.09;98.84;99337.44;5032689;28;20401;-71
2021/11/04 06:12:19;;;;;;;0.00;0.00;;;;;;;10.95;99.12;99313.09;5034209;28;20025;-71
2021/11/04 06:14:44;;;;;;;0.25;0.25;;;;;;;11.01;99.72;99338.78;5034508;28;20508;-71
2021/11/04 06:17:10;;;;;;;0.00;0.00;;;;;;;10.98;99.53;99340.13;5034002;28;20505;-71
2021/11/04 06:19:35;;;;;;;0.00;0.00;;;;;;;10.96;99.74;99342.28;5034216;28;20026;-71
2021/11/04 06:22:01;;;;;;;1.17;0.73;;;;;;;10.95;99.90;99335.31;5034159;28;20399;-71
2021/11/04 06:24:26;;;;;;;0.00;0.00;;;;;;;10.84;99.71;99342.56;5034293;28;20033;-71
2021/11/04 06:26:52;;;;;;;0.00;0.00;;;;;;;10.89;99.93;99355.16;5033868;28;20427;-70
2021/11/04 06:29:17;;;;;;;0.35;0.35;;;;;;;10.84;100.00;99357.81;5034587;28;20030;-70
2021/11/04 06:31:43;;;;;;;0.30;0.30;;;;;;;10.80;100.00;99346.88;5032822;28;20025;-71
2021/11/04 06:34:08;;;;;;;0.00;0.00;;;;;;;10.81;100.00;99350.34;5034212;28;20036;-71
2021/11/04 06:36:34;;;;;;;0.17;0.17;;;;;;;10.83;100.00;99362.38;5034181;28;20031;-72
2021/11/04 06:39:01;;;;;;;0.00;0.00;;;;;;;10.79;100.00;99358.63;5033855;28;20068;-71
2021/11/04 06:41:26;;;;;;;0.00;0.00;;;;;;;10.80;100.00;99357.56;5033823;28;20029;-71
2021/11/04 06:43:52;;;;;;;0.15;0.15;;;;;;;10.79;100.00;99350.63;5033639;28;20387;-71
2021/11/04 06:46:23;;;;;;;0.00;0.00;;;;;;;10.84;100.00;99355.94;5033868;28;20033;-71
2021/11/04 06:48:56;;;;;;;0.05;0.05;;;;;;;10.88;100.00;99353.53;5032618;28;20060;-71
2021/11/04 06:51:23;;;;;;;0.55;0.55;;;;;;;10.87;100.00;99350.03;5033930;28;20380;-71
2021/11/04 06:53:56;;;;;;;0.00;0.00;;;;;;;10.96;100.00;99360.19;5033528;28;20383;-71
2021/11/04 06:56:22;;;;;;;0.65;0.65;;;;;;;10.88;100.00;99343.63;5033564;28;20033;-71
2021/11/04 06:58:50;;;;;;;0.10;0.10;;;;;;;10.93;100.00;99358.09;5033558;28;20036;-71
2021/11/04 07:01:17;;;;;;;0.05;0.05;;;;;;;10.89;100.00;99357.81;5033412;28;20037;-71
2021/11/04 07:03:49;;;;;;;0.15;0.15;;;;;;;10.76;100.00;99345.78;5032325;28;20120;-71
2021/11/04 07:06:24;;;;;;;1.08;1.08;;;;;;;10.78;100.00;99348.19;5033129;28;20087;-70
2021/11/04 07:08:58;;;;;;;0.00;0.00;;;;;;;10.85;100.00;99362.09;5033595;28;20033;-70
2021/11/04 07:11:25;;;;;;;0.10;0.10;;;;;;;10.88;100.00;99358.88;5033582;28;20033;-72
2021/11/04 07:13:52;;;;;;;0.05;0.05;;;;;;;10.91;100.00;99352.97;5033322;28;20021;-72
2021/11/04 07:16:22;;;;;;;0.00;0.00;;;;;;;10.94;100.00;99351.66;5033457;28;20025;-72
2021/11/04 07:18:50;;;;;;;0.08;0.08;;;;;;;10.99;100.00;99351.66;5033416;28;20026;-72
2021/11/04 07:21:16;;;;;;;0.55;0.55;;;;;;;10.91;100.00;99339.59;5032269;28;20098;-72
2021/11/04 07:24:06;;;;;;;0.88;0.47;;;;;;;10.99;100.00;99363.13;5033633;28;20029;-71
2021/11/04 07:26:40;;;;;;;0.20;0.20;;;;;;;10.91;100.00;99346.84;5025328;28;20045;-72
2021/11/04 07:29:09;;;;;;;0.00;0.00;;;;;;;10.94;100.00;99349.78;5033069;28;20033;-72
2021/11/04 07:31:37;;;;;;;0.00;0.00;;;;;;;11.00;100.00;99353.25;5033116;28;20029;-72
2021/11/04 07:34:04;;;;;;;0.00;0.00;;;;;;;11.00;100.00;99342.53;5032835;28;20087;-71
2021/11/04 07:36:34;;;;;;;0.00;0.00;;;;;;;11.03;100.00;99353.50;5033050;28;20037;-71
2021/11/04 07:38:59;;;;;;;3.30;0.47;;;;;;;10.96;100.00;99353.00;5031078;28;20029;-72
2021/11/04 07:41:25;;;;;;;0.13;0.13;;;;;;;10.99;100.00;99360.47;5033274;28;20025;-71
2021/11/04 07:43:50;;;;;;;0.00;0.00;;;;;;;10.96;100.00;99344.97;5031261;28;20060;-70
2021/11/04 07:46:17;;;;;;;0.30;0.30;;;;;;;11.01;100.00;99355.66;5031224;28;20029;-71
2021/11/04 07:48:43;;;;;;;0.08;0.08;;;;;;;10.98;100.00;99356.19;5032783;28;20508;-71
2021/11/04 07:51:10;;;;;;;0.00;0.00;;;;;;;11.03;100.00;99350.03;5032543;28;20022;-71
2021/11/04 07:53:35;;;;;;;0.20;0.20;;;;;;;11.02;100.00;99349.22;5032625;28;20036;-71
2021/11/04 07:56:01;;;;;;;0.05;0.05;;;;;;;11.15;100.00;99360.44;5032180;28;20017;-70
2021/11/04 07:58:26;;;;;;;0.00;0.00;;;;;;;11.23;100.00;99354.53;5032945;28;20033;-71
2021/11/04 08:00:51;;;;;;;0.00;0.00;;;;;;;11.30;100.00;99359.59;5032638;28;20517;-72
2021/11/04 08:03:17;;;;;;;0.00;0.00;;;;;;;11.41;100.00;99376.41;5032366;28;20497;-72
2021/11/04 08:05:42;;;;;;;0.00;0.00;;;;;;;11.45;100.00;99372.94;5032543;28;20029;-72
2021/11/04 08:08:08;;;;;;;0.00;0.00;;;;;;;11.45;100.00;99361.41;5032243;28;20037;-71
2021/11/04 08:10:34;;;;;;;0.00;0.00;;;;;;;11.54;100.00;99365.13;5031013;28;20025;-72
2021/11/04 08:13:06;;;;;;;0.00;0.00;;;;;;;11.64;100.00;99375.78;5032297;28;20052;-72
2021/11/04 08:15:31;;;;;;;0.05;0.05;;;;;;;11.67;100.00;99369.88;5032315;28;20504;-72
2021/11/04 08:17:59;;;;;;;0.00;0.00;;;;;;;11.69;100.00;99366.94;5032340;28;20033;-72
2021/11/04 08:20:25;;;;;;;0.10;0.10;;;;;;;11.66;100.00;99372.84;5032235;28;20022;-72
2021/11/04 08:22:50;;;;;;;0.00;0.00;;;;;;;11.59;100.00;99370.44;5032076;28;20034;-72
2021/11/04 08:25:15;;;;;;;0.00;0.00;;;;;;;11.62;100.00;99372.59;5031593;28;20022;-72
2021/11/04 08:27:41;;;;;;;1.10;0.95;;;;;;;11.53;100.00;99364.34;5032061;28;20029;-72
2021/11/04 08:30:08;;;;;;;0.13;0.13;;;;;;;11.55;100.00;99364.06;5031994;28;20120;-72
2021/11/04 08:32:34;;;;;;;0.00;0.00;;;;;;;11.61;100.00;99375.53;5032051;28;20639;-72
2021/11/04 08:34:59;;;;;;;0.00;0.00;;;;;;;11.55;100.00;99358.69;5031765;28;20029;-72
2021/11/04 08:37:25;;;;;;;0.00;0.00;;;;;;;11.67;100.00;99374.47;5031605;28;20418;-72
2021/11/04 08:39:50;;;;;;;0.00;0.00;;;;;;;11.68;100.00;99376.03;5031794;28;20017;-72
2021/11/04 08:42:16;;;;;;;0.00;0.00;;;;;;;11.69;100.00;99378.47;5031159;28;20064;-72
2021/11/04 08:44:42;;;;;;;0.10;0.10;;;;;;;11.74;100.00;99380.28;5031741;28;20063;-72
2021/11/04 08:47:09;;;;;;;0.00;0.00;;;;;;;11.78;100.00;99377.88;5031154;28;20029;-72
2021/11/04 08:49:35;;;;;;;0.20;0.20;;;;;;;11.80;100.00;99379.22;5031810;28;20399;-72
2021/11/04 08:52:01;;;;;;;0.20;0.20;;;;;;;11.78;100.00;99369.81;5031586;28;20055;-71
2021/11/04 08:54:27;;;;;;;0.00;0.00;;;;;;;11.73;100.00;99370.69;5031642;28;20430;-72
2021/11/04 08:56:52;;;;;;;0.30;0.30;;;;;;;11.70;100.00;99360.50;5031455;28;20059;-72
2021/11/04 08:59:19;;;;;;;0.20;0.20;;;;;;;11.90;100.00;99367.66;5031550;28;20036;-72
2021/11/04 09:01:45;;;;;;;0.00;0.00;;;;;;;11.94;100.00;99366.00;5031483;28;20032;-73
2021/11/04 09:04:12;;;;;;;0.00;0.00;;;;;;;11.96;100.00;99363.03;5031227;28;20040;-73
2021/11/04 09:06:38;;;;;;;0.00;0.00;;;;;;;12.06;100.00;99370.25;5031327;28;20038;-72
2021/11/04 09:09:04;;;;;;;0.00;0.00;;;;;;;12.13;100.00;99370.75;5030914;28;20108;-72
2021/11/04 09:11:30;;;;;;;0.00;0.00;;;;;;;12.19;99.45;99363.47;5030015;28;20116;-72
2021/11/04 09:13:58;;;;;;;0.00;0.00;;;;;;;12.17;98.96;99358.41;5030903;28;20472;-72
2021/11/04 09:16:24;;;;;;;0.10;0.10;;;;;;;12.22;99.25;99362.91;5031224;28;20029;-72
2021/11/04 09:18:50;;;;;;;0.25;0.25;;;;;;;12.25;99.91;99367.72;5031194;28;20034;-72
2021/11/04 09:21:16;;;;;;;0.10;0.10;;;;;;;12.27;99.67;99361.00;5030725;28;20074;-72
2021/11/04 09:23:41;;;;;;;0.52;0.52;;;;;;;12.35;99.32;99370.31;5030773;28;20171;-72
2021/11/04 09:26:06;;;;;;;0.00;0.00;;;;;;;12.33;98.93;99359.88;5030680;28;20033;-72
2021/11/04 09:28:32;;;;;;;0.00;0.00;;;;;;;12.42;99.27;99356.59;5029770;28;20188;-72
2021/11/04 09:30:57;;;;;;;0.00;0.00;;;;;;;12.40;98.71;99354.22;5030792;28;20041;-73
2021/11/04 09:33:23;;;;;;;0.30;0.30;;;;;;;12.39;98.96;99354.47;5030737;28;20028;-72
2021/11/04 09:35:50;;;;;;;0.00;0.00;;;;;;;12.46;99.14;99363.00;5030999;28;20037;-72
2021/11/04 09:38:15;;;;;;;0.40;0.40;;;;;;;12.51;98.94;99360.25;5030857;28;20025;-72
2021/11/04 09:40:41;;;;;;;0.10;0.10;;;;;;;12.58;99.63;99362.63;5030874;28;20029;-72
2021/11/04 09:43:06;;;;;;;0.10;0.10;;;;;;;12.63;99.60;99367.97;5028977;28;20045;-72
2021/11/04 09:45:32;;;;;;;0.10;0.10;;;;;;;12.56;98.88;99365.63;5030449;28;20466;-72
2021/11/04 09:47:57;;;;;;;0.00;0.00;;;;;;;12.49;98.92;99357.09;5030840;28;20108;-72
2021/11/04 09:50:23;;;;;;;0.00;0.00;;;;;;;12.57;99.07;99367.22;5030632;28;20021;-72
2021/11/04 09:52:55;;;;;;;0.10;0.10;;;;;;;12.53;98.24;99371.53;5030621;28;20379;-72
2021/11/04 09:55:28;;;;;;;0.10;0.10;;;;;;;12.44;98.51;99349.09;5030208;28;20030;-72
2021/11/04 09:57:56;;;;;;;0.00;0.00;;;;;;;12.42;98.88;99356.59;5030769;28;20087;-72
2021/11/04 10:00:30;;;;;;;0.50;0.50;;;;;;;12.44;99.52;99357.91;5030477;28;20021;-73
2021/11/04 10:03:19;;;;;;;0.10;0.10;;;;;;;12.45;99.33;99350.66;5030396;28;20471;-72
2021/11/04 10:05:53;;;;;;;0.00;0.00;;;;;;;12.49;98.55;99343.66;5029966;28;20128;-73
2021/11/04 10:08:38;;;;;;;0.30;0.30;;;;;;;12.53;99.18;99349.28;5030039;28;20021;-73
2021/11/04 10:11:12;;;;;;;1.10;0.80;;;;;;;12.48;98.59;99358.94;5028764;28;20026;-73
2021/11/04 10:13:38;;;;;;;0.10;0.10;;;;;;;12.38;99.18;99347.50;5030621;28;20044;-72
2021/11/04 10:16:04;;;;;;;0.50;0.50;;;;;;;12.40;98.08;99348.03;5030438;28;20026;-72
2021/11/04 10:18:41;;;;;;;0.20;0.20;;;;;;;12.44;98.23;99341.03;5030554;28;20095;-72
2021/11/04 10:21:07;;;;;;;0.25;0.25;;;;;;;12.40;98.30;99338.13;5029014;28;20414;-72
2021/11/04 10:23:35;;;;;;;0.30;0.30;;;;;;;12.45;98.70;99331.88;5030410;28;20037;-72
2021/11/04 10:26:12;;;;;;;0.00;0.00;;;;;;;12.42;100.00;99327.09;5030507;28;20033;-72
2021/11/04 10:28:40;;;;;;;0.00;0.00;;;;;;;12.46;99.61;99320.06;5030505;28;20030;-73
2021/11/04 10:31:10;;;;;;;0.10;0.10;;;;;;;12.54;99.35;99334.78;5030296;28;20026;-73
2021/11/04 10:33:38;;;;;;;0.10;0.10;;;;;;;12.54;98.92;99335.56;5030529;28;20041;-73
2021/11/04 10:36:27;;;;;;;0.20;0.20;;;;;;;12.54;99.75;99337.47;5030177;28;20036;-73
2021/11/04 10:38:57;;;;;;;0.00;0.00;;;;;;;12.51;99.75;99329.97;5030804;28;20472;-73
2021/11/04 10:41:30;;;;;;;0.10;0.10;;;;;;;12.60;99.80;99344.38;5030170;28;20026;-73
2021/11/04 10:44:01;;;;;;;0.00;0.00;;;;;;;12.58;98.88;99328.56;5028958;28;20048;-73
2021/11/04 10:46:28;;;;;;;0.00;0.00;;;;;;;12.60;98.81;99334.44;5030418;28;20037;-71
2021/11/04 10:48:59;;;;;;;0.00;0.00;;;;;;;12.59;98.50;99324.78;5030381;28;20036;-72
2021/11/04 10:51:25;;;;;;;0.00;0.00;;;;;;;12.60;98.97;99329.06;5028713;28;20061;-73
2021/11/04 10:53:58;;;;;;;0.00;0.00;;;;;;;12.57;98.67;99339.56;5028731;28;20478;-72
2021/11/04 10:56:23;;;;;;;0.22;0.22;;;;;;;12.55;98.45;99331.81;5031360;28;20037;-72
2021/11/04 10:58:59;;;;;;;0.08;0.08;;;;;;;12.58;98.75;99341.97;5033827;28;20044;-72
2021/11/04 11:01:41;;;;;;;0.75;0.75;;;;;;;12.59;98.62;99345.47;5033546;28;20487;-72
2021/11/04 11:04:14;;;;;;;2.80;1.10;;;;;;;12.55;98.74;99329.13;5033454;28;20037;-72
2021/11/04 11:06:48;;;;;;;0.00;0.00;;;;;;;12.57;99.51;99332.34;5033680;28;20097;-72
2021/11/04 11:09:22;;;;;;;0.25;0.25;;;;;;;12.55;99.64;99317.59;5031974;28;20124;-72
2021/11/04 11:11:54;;;;;;;0.10;0.10;;;;;;;12.61;98.62;99328.00;5033259;28;20061;-72
2021/11/04 11:14:22;;;;;;;0.43;0.17;;;;;;;12.52;98.52;99318.94;5033219;28;20112;-72
2021/11/04 11:16:52;;;;;;;0.17;0.17;;;;;;;12.55;98.65;99326.44;5033173;28;20033;-72
2021/11/04 11:19:20;;;;;;;0.00;0.00;;;;;;;12.58;99.56;99331.22;5032794;28;20044;-72
2021/11/04 11:21:50;;;;;;;0.05;0.05;;;;;;;12.57;99.29;99324.28;5033014;28;20502;-72
2021/11/04 11:24:17;;;;;;;0.30;0.30;;;;;;;12.60;98.72;99329.06;5031782;28;20056;-72
2021/11/04 11:26:44;;;;;;;0.00;0.00;;;;;;;12.64;98.92;99327.41;5031850;28;20104;-72
2021/11/04 11:29:10;;;;;;;0.03;0.03;;;;;;;12.70;98.76;99317.44;5032770;28;20029;-72
2021/11/04 11:31:49;;;;;;;0.10;0.10;;;;;;;12.71;99.07;99302.16;5033123;28;20439;-72